EmailTwitter


Observations de surface / Québec / CYUL (71627)

Régions: Québec | Canada | États-Unis | Europe | France | UK | Elsewhere
Station
Affichage
Infos & localisation pour CYUL (71627) | Aide pour décoder les METARs

Observations prises le 2017-06-27 à 15H00 UTC à MONTREAL INTL A, QB (CYUL)

Etat du ciel: partiellement nuageux.

Température: 19.0 Celsius

Point de rosée: 12.0 Celsius

Humidité relative: 64%

Vents: Sud-ouest à 15 km/h ou 8 noeuds.

Pression au niveau moyen de la mer: 101.35 kilopascals.

Calage altimétrique: 101.32 kilopascals ou 29.92 pouces de mercure.

Visibilité horizontale: 30.00 milles terrestres ou 48.00 kilomètres.

Hauteur du plafond: 7315 mètres ( 24000 pieds ).

Observation METAR:

CYUL 271500Z 22008KT 170V240 30SM SCT030 SCT110 BKN240 19/12 A2992 RMK

CF3AC1CI1 TCU EMBD SLP135 DENSITY ALT 700FT=